sensor_id;sensor_type;location;lat;lon;timestamp;P1;durP1;ratioP1;P2;durP2;ratioP2
850;SDS011;412;51.400;7.480;2023-04-24T00:00:08;2.47;;;2.37;;
850;SDS011;412;51.400;7.480;2023-04-24T00:02:35;2.50;;;2.40;;
850;SDS011;412;51.400;7.480;2023-04-24T00:05:05;2.17;;;2.13;;
850;SDS011;412;51.400;7.480;2023-04-24T00:07:31;2.40;;;2.30;;
850;SDS011;412;51.400;7.480;2023-04-24T00:09:57;2.10;;;2.00;;
850;SDS011;412;51.400;7.480;2023-04-24T00:12:23;2.40;;;2.30;;
850;SDS011;412;51.400;7.480;2023-04-24T00:14:49;2.60;;;2.10;;
850;SDS011;412;51.400;7.480;2023-04-24T00:17:15;2.30;;;2.20;;
850;SDS011;412;51.400;7.480;2023-04-24T00:19:45;2.13;;;2.13;;
850;SDS011;412;51.400;7.480;2023-04-24T00:22:11;2.30;;;2.20;;
850;SDS011;412;51.400;7.480;2023-04-24T00:24:38;2.77;;;2.60;;
850;SDS011;412;51.400;7.480;2023-04-24T00:27:04;2.23;;;2.20;;
850;SDS011;412;51.400;7.480;2023-04-24T00:29:30;2.50;;;2.40;;
850;SDS011;412;51.400;7.480;2023-04-24T00:31:56;2.40;;;2.30;;
850;SDS011;412;51.400;7.480;2023-04-24T00:34:22;2.60;;;2.50;;
850;SDS011;412;51.400;7.480;2023-04-24T00:36:48;2.40;;;2.20;;
850;SDS011;412;51.400;7.480;2023-04-24T00:39:20;2.67;;;2.47;;
850;SDS011;412;51.400;7.480;2023-04-24T00:41:47;2.23;;;2.20;;
850;SDS011;412;51.400;7.480;2023-04-24T00:44:13;2.40;;;2.30;;
850;SDS011;412;51.400;7.480;2023-04-24T00:46:39;2.43;;;2.33;;
850;SDS011;412;51.400;7.480;2023-04-24T00:49:06;2.30;;;2.20;;
850;SDS011;412;51.400;7.480;2023-04-24T00:51:32;2.50;;;2.40;;
850;SDS011;412;51.400;7.480;2023-04-24T00:53:58;2.83;;;2.70;;
850;SDS011;412;51.400;7.480;2023-04-24T00:56:25;2.60;;;2.50;;
850;SDS011;412;51.400;7.480;2023-04-24T00:58:51;2.30;;;2.30;;
850;SDS011;412;51.400;7.480;2023-04-24T01:01:17;2.60;;;2.50;;
850;SDS011;412;51.400;7.480;2023-04-24T01:03:46;2.70;;;2.60;;
850;SDS011;412;51.400;7.480;2023-04-24T01:06:12;2.90;;;2.80;;
850;SDS011;412;51.400;7.480;2023-04-24T01:08:38;2.70;;;2.60;;
850;SDS011;412;51.400;7.480;2023-04-24T01:11:05;2.27;;;2.20;;
850;SDS011;412;51.400;7.480;2023-04-24T01:13:31;2.63;;;2.53;;
850;SDS011;412;51.400;7.480;2023-04-24T01:15:57;2.70;;;2.60;;
850;SDS011;412;51.400;7.480;2023-04-24T01:18:24;2.73;;;2.63;;
850;SDS011;412;51.400;7.480;2023-04-24T01:20:51;2.77;;;2.60;;
850;SDS011;412;51.400;7.480;2023-04-24T01:23:21;2.70;;;2.60;;
850;SDS011;412;51.400;7.480;2023-04-24T01:25:48;2.50;;;2.40;;
850;SDS011;412;51.400;7.480;2023-04-24T01:28:14;2.67;;;2.57;;
850;SDS011;412;51.400;7.480;2023-04-24T01:30:41;2.43;;;2.33;;
850;SDS011;412;51.400;7.480;2023-04-24T01:33:06;2.80;;;2.70;;
850;SDS011;412;51.400;7.480;2023-04-24T01:35:33;2.60;;;2.50;;
850;SDS011;412;51.400;7.480;2023-04-24T01:37:59;2.73;;;2.63;;
850;SDS011;412;51.400;7.480;2023-04-24T01:40:25;2.80;;;2.70;;
850;SDS011;412;51.400;7.480;2023-04-24T01:42:51;2.70;;;2.60;;
850;SDS011;412;51.400;7.480;2023-04-24T01:45:17;2.53;;;2.43;;
850;SDS011;412;51.400;7.480;2023-04-24T01:47:43;3.30;;;2.90;;
850;SDS011;412;51.400;7.480;2023-04-24T01:50:10;2.60;;;2.50;;
850;SDS011;412;51.400;7.480;2023-04-24T01:52:35;2.47;;;2.37;;
850;SDS011;412;51.400;7.480;2023-04-24T01:55:04;2.70;;;2.50;;
850;SDS011;412;51.400;7.480;2023-04-24T01:57:32;2.50;;;2.40;;
850;SDS011;412;51.400;7.480;2023-04-24T01:59:58;2.57;;;2.47;;
850;SDS011;412;51.400;7.480;2023-04-24T02:02:24;2.50;;;2.40;;
850;SDS011;412;51.400;7.480;2023-04-24T02:04:53;2.60;;;2.50;;
850;SDS011;412;51.400;7.480;2023-04-24T02:07:19;2.67;;;2.57;;
850;SDS011;412;51.400;7.480;2023-04-24T02:09:45;2.60;;;2.40;;
850;SDS011;412;51.400;7.480;2023-04-24T02:12:11;2.80;;;2.70;;
850;SDS011;412;51.400;7.480;2023-04-24T02:14:36;2.90;;;2.80;;
850;SDS011;412;51.400;7.480;2023-04-24T02:17:02;2.80;;;2.70;;
850;SDS011;412;51.400;7.480;2023-04-24T02:19:28;3.53;;;3.43;;
850;SDS011;412;51.400;7.480;2023-04-24T02:21:54;3.90;;;3.60;;
850;SDS011;412;51.400;7.480;2023-04-24T02:24:20;3.60;;;3.40;;
850;SDS011;412;51.400;7.480;2023-04-24T02:26:45;3.77;;;3.57;;
850;SDS011;412;51.400;7.480;2023-04-24T02:29:11;3.90;;;3.70;;
850;SDS011;412;51.400;7.480;2023-04-24T02:31:37;4.30;;;3.90;;
850;SDS011;412;51.400;7.480;2023-04-24T02:34:02;4.33;;;4.13;;
850;SDS011;412;51.400;7.480;2023-04-24T02:36:28;4.90;;;4.60;;
850;SDS011;412;51.400;7.480;2023-04-24T02:38:55;4.80;;;4.40;;
850;SDS011;412;51.400;7.480;2023-04-24T02:41:21;4.20;;;3.90;;
850;SDS011;412;51.400;7.480;2023-04-24T02:43:46;4.30;;;4.00;;
850;SDS011;412;51.400;7.480;2023-04-24T02:46:12;4.00;;;3.80;;
850;SDS011;412;51.400;7.480;2023-04-24T02:48:38;3.93;;;3.70;;
850;SDS011;412;51.400;7.480;2023-04-24T02:51:04;3.90;;;3.70;;
850;SDS011;412;51.400;7.480;2023-04-24T02:53:29;4.30;;;4.00;;
850;SDS011;412;51.400;7.480;2023-04-24T02:55:55;5.83;;;5.43;;
850;SDS011;412;51.400;7.480;2023-04-24T02:58:22;5.30;;;4.90;;
850;SDS011;412;51.400;7.480;2023-04-24T03:00:47;5.87;;;5.30;;
850;SDS011;412;51.400;7.480;2023-04-24T03:03:13;6.10;;;5.60;;
850;SDS011;412;51.400;7.480;2023-04-24T03:05:40;6.97;;;6.30;;
850;SDS011;412;51.400;7.480;2023-04-24T03:08:06;6.80;;;6.20;;
850;SDS011;412;51.400;7.480;2023-04-24T03:10:31;6.90;;;6.30;;
850;SDS011;412;51.400;7.480;2023-04-24T03:12:57;8.90;;;8.10;;
850;SDS011;412;51.400;7.480;2023-04-24T03:15:23;9.30;;;8.50;;
850;SDS011;412;51.400;7.480;2023-04-24T03:17:49;8.30;;;7.60;;
850;SDS011;412;51.400;7.480;2023-04-24T03:20:14;9.30;;;8.40;;
850;SDS011;412;51.400;7.480;2023-04-24T03:22:40;10.90;;;9.20;;
850;SDS011;412;51.400;7.480;2023-04-24T03:25:06;9.90;;;9.00;;
850;SDS011;412;51.400;7.480;2023-04-24T03:27:34;10.20;;;9.30;;
850;SDS011;412;51.400;7.480;2023-04-24T03:30:00;10.67;;;9.67;;
850;SDS011;412;51.400;7.480;2023-04-24T03:32:27;10.63;;;9.63;;
850;SDS011;412;51.400;7.480;2023-04-24T03:34:52;9.87;;;8.97;;
850;SDS011;412;51.400;7.480;2023-04-24T03:37:18;9.77;;;8.87;;
850;SDS011;412;51.400;7.480;2023-04-24T03:39:44;10.17;;;9.10;;
850;SDS011;412;51.400;7.480;2023-04-24T03:42:09;9.70;;;8.90;;
850;SDS011;412;51.400;7.480;2023-04-24T03:44:35;10.77;;;9.33;;
850;SDS011;412;51.400;7.480;2023-04-24T03:47:01;9.80;;;8.90;;
850;SDS011;412;51.400;7.480;2023-04-24T03:49:27;10.77;;;9.73;;
850;SDS011;412;51.400;7.480;2023-04-24T03:51:53;14.10;;;12.70;;
850;SDS011;412;51.400;7.480;2023-04-24T03:54:19;11.47;;;10.47;;
850;SDS011;412;51.400;7.480;2023-04-24T03:56:45;12.93;;;11.80;;
850;SDS011;412;51.400;7.480;2023-04-24T03:59:11;11.03;;;10.17;;
850;SDS011;412;51.400;7.480;2023-04-24T04:01:37;11.30;;;10.30;;
850;SDS011;412;51.400;7.480;2023-04-24T04:04:03;13.20;;;9.00;;
850;SDS011;412;51.400;7.480;2023-04-24T04:06:29;13.00;;;11.80;;
850;SDS011;412;51.400;7.480;2023-04-24T04:08:58;10.67;;;9.70;;
850;SDS011;412;51.400;7.480;2023-04-24T04:11:24;9.63;;;8.70;;
850;SDS011;412;51.400;7.480;2023-04-24T04:13:50;9.30;;;8.50;;
850;SDS011;412;51.400;7.480;2023-04-24T04:16:16;9.67;;;8.77;;
850;SDS011;412;51.400;7.480;2023-04-24T04:18:44;10.10;;;9.13;;
850;SDS011;412;51.400;7.480;2023-04-24T04:21:10;14.17;;;12.67;;
850;SDS011;412;51.400;7.480;2023-04-24T04:23:36;11.70;;;9.63;;
850;SDS011;412;51.400;7.480;2023-04-24T04:26:02;11.23;;;10.13;;
850;SDS011;412;51.400;7.480;2023-04-24T04:28:29;11.50;;;10.07;;
850;SDS011;412;51.400;7.480;2023-04-24T04:30:56;13.43;;;12.33;;
850;SDS011;412;51.400;7.480;2023-04-24T04:33:23;11.50;;;10.00;;
850;SDS011;412;51.400;7.480;2023-04-24T04:35:49;12.00;;;11.00;;
850;SDS011;412;51.400;7.480;2023-04-24T04:38:17;13.60;;;11.47;;
850;SDS011;412;51.400;7.480;2023-04-24T04:40:44;10.10;;;9.20;;
850;SDS011;412;51.400;7.480;2023-04-24T04:43:10;11.23;;;9.70;;
850;SDS011;412;51.400;7.480;2023-04-24T04:45:38;10.97;;;9.20;;
850;SDS011;412;51.400;7.480;2023-04-24T04:48:05;10.00;;;9.00;;
850;SDS011;412;51.400;7.480;2023-04-24T04:50:33;13.27;;;12.00;;
850;SDS011;412;51.400;7.480;2023-04-24T04:52:58;11.43;;;10.27;;
850;SDS011;412;51.400;7.480;2023-04-24T04:55:24;12.40;;;10.90;;
850;SDS011;412;51.400;7.480;2023-04-24T04:57:51;14.87;;;13.40;;
850;SDS011;412;51.400;7.480;2023-04-24T05:00:17;14.30;;;13.00;;
850;SDS011;412;51.400;7.480;2023-04-24T05:02:43;14.63;;;13.17;;
850;SDS011;412;51.400;7.480;2023-04-24T05:05:09;12.57;;;11.37;;
850;SDS011;412;51.400;7.480;2023-04-24T05:07:35;12.40;;;11.17;;
850;SDS011;412;51.400;7.480;2023-04-24T05:10:01;14.17;;;12.33;;
850;SDS011;412;51.400;7.480;2023-04-24T05:12:27;13.00;;;11.90;;
850;SDS011;412;51.400;7.480;2023-04-24T05:14:53;12.53;;;11.40;;
850;SDS011;412;51.400;7.480;2023-04-24T05:17:18;13.43;;;11.73;;
850;SDS011;412;51.400;7.480;2023-04-24T05:19:44;12.43;;;11.47;;
850;SDS011;412;51.400;7.480;2023-04-24T05:22:10;12.00;;;10.90;;
850;SDS011;412;51.400;7.480;2023-04-24T05:24:36;10.20;;;8.90;;
850;SDS011;412;51.400;7.480;2023-04-24T05:27:03;9.27;;;8.37;;
850;SDS011;412;51.400;7.480;2023-04-24T05:29:30;11.23;;;9.00;;
850;SDS011;412;51.400;7.480;2023-04-24T05:31:56;11.93;;;10.90;;
850;SDS011;412;51.400;7.480;2023-04-24T05:34:22;9.17;;;8.37;;
850;SDS011;412;51.400;7.480;2023-04-24T05:36:48;12.53;;;11.50;;
850;SDS011;412;51.400;7.480;2023-04-24T05:39:15;13.17;;;12.03;;
850;SDS011;412;51.400;7.480;2023-04-24T05:41:41;10.80;;;9.70;;
850;SDS011;412;51.400;7.480;2023-04-24T05:44:08;11.97;;;9.03;;
850;SDS011;412;51.400;7.480;2023-04-24T05:46:34;10.77;;;9.77;;
850;SDS011;412;51.400;7.480;2023-04-24T05:49:00;9.03;;;8.10;;
850;SDS011;412;51.400;7.480;2023-04-24T05:51:27;11.33;;;10.53;;
850;SDS011;412;51.400;7.480;2023-04-24T05:53:52;9.20;;;8.40;;
850;SDS011;412;51.400;7.480;2023-04-24T05:56:18;9.47;;;8.60;;
850;SDS011;412;51.400;7.480;2023-04-24T05:58:45;12.60;;;11.20;;
850;SDS011;412;51.400;7.480;2023-04-24T06:01:11;10.53;;;9.47;;
850;SDS011;412;51.400;7.480;2023-04-24T06:03:39;10.20;;;9.30;;
850;SDS011;412;51.400;7.480;2023-04-24T06:06:06;11.90;;;9.03;;
850;SDS011;412;51.400;7.480;2023-04-24T06:08:33;11.53;;;9.20;;
850;SDS011;412;51.400;7.480;2023-04-24T06:11:00;11.47;;;10.57;;
850;SDS011;412;51.400;7.480;2023-04-24T06:13:26;10.90;;;10.00;;
850;SDS011;412;51.400;7.480;2023-04-24T06:15:52;9.43;;;8.53;;
850;SDS011;412;51.400;7.480;2023-04-24T06:18:18;11.20;;;10.20;;
850;SDS011;412;51.400;7.480;2023-04-24T06:20:44;8.43;;;7.60;;
850;SDS011;412;51.400;7.480;2023-04-24T06:23:10;9.40;;;8.60;;
850;SDS011;412;51.400;7.480;2023-04-24T06:25:36;8.77;;;7.83;;
850;SDS011;412;51.400;7.480;2023-04-24T06:28:02;18.43;;;14.20;;
850;SDS011;412;51.400;7.480;2023-04-24T06:30:28;9.53;;;8.73;;
850;SDS011;412;51.400;7.480;2023-04-24T06:32:54;7.67;;;6.97;;
850;SDS011;412;51.400;7.480;2023-04-24T06:35:20;8.63;;;7.93;;
850;SDS011;412;51.400;7.480;2023-04-24T06:37:46;8.57;;;7.93;;
850;SDS011;412;51.400;7.480;2023-04-24T06:40:12;7.00;;;6.43;;
850;SDS011;412;51.400;7.480;2023-04-24T06:42:38;7.00;;;6.40;;
850;SDS011;412;51.400;7.480;2023-04-24T06:45:04;7.57;;;6.97;;
850;SDS011;412;51.400;7.480;2023-04-24T06:47:30;6.97;;;6.37;;
850;SDS011;412;51.400;7.480;2023-04-24T06:49:56;7.10;;;6.60;;
850;SDS011;412;51.400;7.480;2023-04-24T06:52:22;6.27;;;5.67;;
850;SDS011;412;51.400;7.480;2023-04-24T06:54:48;6.37;;;5.87;;
850;SDS011;412;51.400;7.480;2023-04-24T06:57:14;7.50;;;6.90;;
850;SDS011;412;51.400;7.480;2023-04-24T06:59:41;6.80;;;6.30;;
850;SDS011;412;51.400;7.480;2023-04-24T07:02:07;6.90;;;5.83;;
850;SDS011;412;51.400;7.480;2023-04-24T07:04:33;6.83;;;6.23;;
850;SDS011;412;51.400;7.480;2023-04-24T07:06:59;7.70;;;6.90;;
850;SDS011;412;51.400;7.480;2023-04-24T07:09:25;7.47;;;6.87;;
850;SDS011;412;51.400;7.480;2023-04-24T07:11:51;8.10;;;7.30;;
850;SDS011;412;51.400;7.480;2023-04-24T07:14:18;7.50;;;6.80;;
850;SDS011;412;51.400;7.480;2023-04-24T07:16:45;7.40;;;6.33;;
850;SDS011;412;51.400;7.480;2023-04-24T07:19:12;7.20;;;6.50;;
850;SDS011;412;51.400;7.480;2023-04-24T07:21:39;7.63;;;6.83;;
850;SDS011;412;51.400;7.480;2023-04-24T07:24:05;7.53;;;7.00;;
850;SDS011;412;51.400;7.480;2023-04-24T07:26:34;9.30;;;8.60;;
850;SDS011;412;51.400;7.480;2023-04-24T07:29:00;6.90;;;6.30;;
850;SDS011;412;51.400;7.480;2023-04-24T07:31:26;7.70;;;7.10;;
850;SDS011;412;51.400;7.480;2023-04-24T07:33:51;6.33;;;5.83;;
850;SDS011;412;51.400;7.480;2023-04-24T07:36:17;6.80;;;6.20;;
850;SDS011;412;51.400;7.480;2023-04-24T07:38:46;6.30;;;5.80;;
850;SDS011;412;51.400;7.480;2023-04-24T07:41:15;6.60;;;6.10;;
850;SDS011;412;51.400;7.480;2023-04-24T07:43:41;6.47;;;5.87;;
850;SDS011;412;51.400;7.480;2023-04-24T07:46:07;6.13;;;5.70;;
850;SDS011;412;51.400;7.480;2023-04-24T07:48:33;5.97;;;5.47;;
850;SDS011;412;51.400;7.480;2023-04-24T07:51:00;5.80;;;5.40;;
850;SDS011;412;51.400;7.480;2023-04-24T07:53:25;5.90;;;5.50;;
850;SDS011;412;51.400;7.480;2023-04-24T07:55:51;5.47;;;5.07;;
850;SDS011;412;51.400;7.480;2023-04-24T07:58:17;4.17;;;3.87;;
850;SDS011;412;51.400;7.480;2023-04-24T08:00:43;4.63;;;4.40;;
850;SDS011;412;51.400;7.480;2023-04-24T08:03:08;5.10;;;4.80;;
850;SDS011;412;51.400;7.480;2023-04-24T08:05:34;3.07;;;2.90;;
850;SDS011;412;51.400;7.480;2023-04-24T08:08:00;5.70;;;2.87;;
850;SDS011;412;51.400;7.480;2023-04-24T08:10:26;3.00;;;2.80;;
850;SDS011;412;51.400;7.480;2023-04-24T08:12:51;2.83;;;2.63;;
850;SDS011;412;51.400;7.480;2023-04-24T08:15:17;4.23;;;4.03;;
850;SDS011;412;51.400;7.480;2023-04-24T08:17:43;3.03;;;2.30;;
850;SDS011;412;51.400;7.480;2023-04-24T08:20:10;3.13;;;2.90;;
850;SDS011;412;51.400;7.480;2023-04-24T08:22:40;3.40;;;3.30;;
850;SDS011;412;51.400;7.480;2023-04-24T08:25:06;2.53;;;2.33;;
850;SDS011;412;51.400;7.480;2023-04-24T08:27:32;2.70;;;2.60;;
850;SDS011;412;51.400;7.480;2023-04-24T08:29:58;3.90;;;3.80;;
850;SDS011;412;51.400;7.480;2023-04-24T08:32:25;3.63;;;3.43;;
850;SDS011;412;51.400;7.480;2023-04-24T08:34:54;2.83;;;2.73;;
850;SDS011;412;51.400;7.480;2023-04-24T08:37:23;2.67;;;2.57;;
850;SDS011;412;51.400;7.480;2023-04-24T08:39:50;2.43;;;2.33;;
850;SDS011;412;51.400;7.480;2023-04-24T08:42:16;2.13;;;2.03;;
850;SDS011;412;51.400;7.480;2023-04-24T08:44:43;2.70;;;2.60;;
850;SDS011;412;51.400;7.480;2023-04-24T08:47:10;2.30;;;2.30;;
850;SDS011;412;51.400;7.480;2023-04-24T08:49:36;2.40;;;2.33;;
850;SDS011;412;51.400;7.480;2023-04-24T08:52:03;2.90;;;2.80;;
850;SDS011;412;51.400;7.480;2023-04-24T08:54:30;1.83;;;1.77;;
850;SDS011;412;51.400;7.480;2023-04-24T08:57:00;3.00;;;3.00;;
850;SDS011;412;51.400;7.480;2023-04-24T08:59:29;1.60;;;1.60;;
850;SDS011;412;51.400;7.480;2023-04-24T09:01:59;1.57;;;1.50;;
850;SDS011;412;51.400;7.480;2023-04-24T09:04:26;1.70;;;1.70;;
850;SDS011;412;51.400;7.480;2023-04-24T09:06:55;1.90;;;1.83;;
850;SDS011;412;51.400;7.480;2023-04-24T09:09:22;1.93;;;1.83;;
850;SDS011;412;51.400;7.480;2023-04-24T09:11:49;2.10;;;2.10;;
850;SDS011;412;51.400;7.480;2023-04-24T09:14:15;1.90;;;1.80;;
850;SDS011;412;51.400;7.480;2023-04-24T09:16:42;1.60;;;1.50;;
850;SDS011;412;51.400;7.480;2023-04-24T09:19:08;1.93;;;1.93;;
850;SDS011;412;51.400;7.480;2023-04-24T09:21:34;1.80;;;1.80;;
850;SDS011;412;51.400;7.480;2023-04-24T09:24:05;3.40;;;3.30;;
850;SDS011;412;51.400;7.480;2023-04-24T09:26:34;2.60;;;2.50;;
850;SDS011;412;51.400;7.480;2023-04-24T09:29:01;2.10;;;2.10;;
850;SDS011;412;51.400;7.480;2023-04-24T09:31:28;2.23;;;2.23;;
850;SDS011;412;51.400;7.480;2023-04-24T09:33:59;2.13;;;2.03;;
850;SDS011;412;51.400;7.480;2023-04-24T09:36:31;3.60;;;3.50;;
850;SDS011;412;51.400;7.480;2023-04-24T09:38:59;2.80;;;2.70;;
850;SDS011;412;51.400;7.480;2023-04-24T09:41:26;2.40;;;2.30;;
850;SDS011;412;51.400;7.480;2023-04-24T09:43:56;2.00;;;1.90;;
850;SDS011;412;51.400;7.480;2023-04-24T09:46:29;2.13;;;2.03;;
850;SDS011;412;51.400;7.480;2023-04-24T09:48:56;2.03;;;1.90;;
850;SDS011;412;51.400;7.480;2023-04-24T09:51:33;2.40;;;2.30;;
850;SDS011;412;51.400;7.480;2023-04-24T09:54:00;2.40;;;2.30;;
850;SDS011;412;51.400;7.480;2023-04-24T09:56:26;2.10;;;2.00;;
850;SDS011;412;51.400;7.480;2023-04-24T09:58:53;3.10;;;3.00;;
850;SDS011;412;51.400;7.480;2023-04-24T10:01:31;2.47;;;2.37;;
850;SDS011;412;51.400;7.480;2023-04-24T10:03:57;3.73;;;3.63;;
850;SDS011;412;51.400;7.480;2023-04-24T10:06:29;2.30;;;2.20;;
850;SDS011;412;51.400;7.480;2023-04-24T10:08:57;4.30;;;4.00;;
850;SDS011;412;51.400;7.480;2023-04-24T10:11:27;3.90;;;3.70;;
850;SDS011;412;51.400;7.480;2023-04-24T10:13:53;3.87;;;3.67;;
850;SDS011;412;51.400;7.480;2023-04-24T10:16:22;3.43;;;3.17;;
850;SDS011;412;51.400;7.480;2023-04-24T10:18:49;4.00;;;3.70;;
850;SDS011;412;51.400;7.480;2023-04-24T10:21:15;3.10;;;2.90;;
850;SDS011;412;51.400;7.480;2023-04-24T10:23:42;3.43;;;3.23;;
850;SDS011;412;51.400;7.480;2023-04-24T10:26:08;3.50;;;3.30;;
850;SDS011;412;51.400;7.480;2023-04-24T10:28:36;3.73;;;3.43;;
850;SDS011;412;51.400;7.480;2023-04-24T10:31:02;3.80;;;3.50;;
850;SDS011;412;51.400;7.480;2023-04-24T10:33:29;3.50;;;3.30;;
850;SDS011;412;51.400;7.480;2023-04-24T10:35:56;3.77;;;3.57;;
850;SDS011;412;51.400;7.480;2023-04-24T10:38:24;4.10;;;3.80;;
850;SDS011;412;51.400;7.480;2023-04-24T10:40:51;4.07;;;3.77;;
850;SDS011;412;51.400;7.480;2023-04-24T10:43:45;4.37;;;4.17;;
850;SDS011;412;51.400;7.480;2023-04-24T10:46:16;4.33;;;4.10;;
850;SDS011;412;51.400;7.480;2023-04-24T10:48:47;3.60;;;3.40;;
850;SDS011;412;51.400;7.480;2023-04-24T10:51:22;3.80;;;3.50;;
850;SDS011;412;51.400;7.480;2023-04-24T10:53:49;4.30;;;4.00;;
850;SDS011;412;51.400;7.480;2023-04-24T10:56:16;3.60;;;3.40;;
850;SDS011;412;51.400;7.480;2023-04-24T11:01:23;4.53;;;4.13;;
850;SDS011;412;51.400;7.480;2023-04-24T11:03:54;4.40;;;4.10;;
850;SDS011;412;51.400;7.480;2023-04-24T11:06:34;7.40;;;4.73;;
850;SDS011;412;51.400;7.480;2023-04-24T11:09:04;4.70;;;4.40;;
850;SDS011;412;51.400;7.480;2023-04-24T11:11:32;6.20;;;4.90;;
850;SDS011;412;51.400;7.480;2023-04-24T11:16:31;5.67;;;5.17;;
850;SDS011;412;51.400;7.480;2023-04-24T11:19:05;6.90;;;5.53;;
850;SDS011;412;51.400;7.480;2023-04-24T11:29:41;5.67;;;5.10;;
850;SDS011;412;51.400;7.480;2023-04-24T11:34:49;6.00;;;5.40;;
850;SDS011;412;51.400;7.480;2023-04-24T11:37:16;9.03;;;4.90;;
850;SDS011;412;51.400;7.480;2023-04-24T11:39:42;5.73;;;5.00;;
850;SDS011;412;51.400;7.480;2023-04-24T11:42:09;5.37;;;4.90;;
850;SDS011;412;51.400;7.480;2023-04-24T11:44:35;6.57;;;5.30;;
850;SDS011;412;51.400;7.480;2023-04-24T11:47:04;11.30;;;6.70;;
850;SDS011;412;51.400;7.480;2023-04-24T11:49:32;5.60;;;4.37;;
850;SDS011;412;51.400;7.480;2023-04-24T11:52:02;9.57;;;6.20;;
850;SDS011;412;51.400;7.480;2023-04-24T11:54:29;5.70;;;4.90;;
850;SDS011;412;51.400;7.480;2023-04-24T11:56:55;7.30;;;6.30;;
850;SDS011;412;51.400;7.480;2023-04-24T11:59:21;8.83;;;8.03;;
850;SDS011;412;51.400;7.480;2023-04-24T12:01:47;5.47;;;4.97;;
850;SDS011;412;51.400;7.480;2023-04-24T12:04:15;9.80;;;5.83;;
850;SDS011;412;51.400;7.480;2023-04-24T12:09:27;7.30;;;6.60;;
850;SDS011;412;51.400;7.480;2023-04-24T12:11:53;8.53;;;7.50;;
850;SDS011;412;51.400;7.480;2023-04-24T12:14:24;13.20;;;11.40;;
850;SDS011;412;51.400;7.480;2023-04-24T12:16:50;9.07;;;8.17;;
850;SDS011;412;51.400;7.480;2023-04-24T12:19:20;7.53;;;6.53;;
850;SDS011;412;51.400;7.480;2023-04-24T12:22:03;7.13;;;6.53;;
850;SDS011;412;51.400;7.480;2023-04-24T12:24:30;7.87;;;7.07;;
850;SDS011;412;51.400;7.480;2023-04-24T12:26:57;8.13;;;6.50;;
850;SDS011;412;51.400;7.480;2023-04-24T12:29:23;7.00;;;6.10;;
850;SDS011;412;51.400;7.480;2023-04-24T12:31:50;7.63;;;6.27;;
850;SDS011;412;51.400;7.480;2023-04-24T12:34:20;10.53;;;6.70;;
850;SDS011;412;51.400;7.480;2023-04-24T12:36:46;7.63;;;6.80;;
850;SDS011;412;51.400;7.480;2023-04-24T12:39:19;7.30;;;6.60;;
850;SDS011;412;51.400;7.480;2023-04-24T12:41:57;10.40;;;9.30;;
850;SDS011;412;51.400;7.480;2023-04-24T12:44:34;7.20;;;6.40;;
850;SDS011;412;51.400;7.480;2023-04-24T12:47:01;9.93;;;8.33;;
850;SDS011;412;51.400;7.480;2023-04-24T12:49:27;9.67;;;8.80;;
850;SDS011;412;51.400;7.480;2023-04-24T12:51:55;10.40;;;6.20;;
850;SDS011;412;51.400;7.480;2023-04-24T12:54:21;7.80;;;5.90;;
850;SDS011;412;51.400;7.480;2023-04-24T12:56:47;6.63;;;6.10;;
850;SDS011;412;51.400;7.480;2023-04-24T12:59:13;5.90;;;5.23;;
850;SDS011;412;51.400;7.480;2023-04-24T13:01:39;7.50;;;5.97;;
850;SDS011;412;51.400;7.480;2023-04-24T13:04:05;8.97;;;8.10;;
850;SDS011;412;51.400;7.480;2023-04-24T13:06:31;7.50;;;6.80;;
850;SDS011;412;51.400;7.480;2023-04-24T13:08:57;10.67;;;6.27;;
850;SDS011;412;51.400;7.480;2023-04-24T13:11:23;6.93;;;6.23;;
850;SDS011;412;51.400;7.480;2023-04-24T13:13:49;7.10;;;6.40;;
850;SDS011;412;51.400;7.480;2023-04-24T13:16:15;6.30;;;5.27;;
850;SDS011;412;51.400;7.480;2023-04-24T13:18:42;5.80;;;5.23;;
850;SDS011;412;51.400;7.480;2023-04-24T13:21:07;8.10;;;7.17;;
850;SDS011;412;51.400;7.480;2023-04-24T13:23:33;10.30;;;5.40;;
850;SDS011;412;51.400;7.480;2023-04-24T13:25:59;4.80;;;4.40;;
850;SDS011;412;51.400;7.480;2023-04-24T13:28:26;5.80;;;5.07;;
850;SDS011;412;51.400;7.480;2023-04-24T13:30:52;6.23;;;5.70;;
850;SDS011;412;51.400;7.480;2023-04-24T13:33:18;4.33;;;4.03;;
850;SDS011;412;51.400;7.480;2023-04-24T13:35:44;4.30;;;4.00;;
850;SDS011;412;51.400;7.480;2023-04-24T13:38:10;7.00;;;6.40;;
850;SDS011;412;51.400;7.480;2023-04-24T13:40:35;8.00;;;6.20;;
850;SDS011;412;51.400;7.480;2023-04-24T13:43:02;5.90;;;4.43;;
850;SDS011;412;51.400;7.480;2023-04-24T13:45:28;4.17;;;3.77;;
850;SDS011;412;51.400;7.480;2023-04-24T13:47:54;10.13;;;8.00;;
850;SDS011;412;51.400;7.480;2023-04-24T13:50:20;5.07;;;4.03;;
850;SDS011;412;51.400;7.480;2023-04-24T13:52:46;5.23;;;4.77;;
850;SDS011;412;51.400;7.480;2023-04-24T13:55:11;4.73;;;3.80;;
850;SDS011;412;51.400;7.480;2023-04-24T13:57:37;23.20;;;17.00;;
850;SDS011;412;51.400;7.480;2023-04-24T14:00:03;5.97;;;4.90;;
850;SDS011;412;51.400;7.480;2023-04-24T14:02:31;12.87;;;6.57;;
850;SDS011;412;51.400;7.480;2023-04-24T14:04:57;5.60;;;5.10;;
850;SDS011;412;51.400;7.480;2023-04-24T14:07:22;5.97;;;4.20;;
850;SDS011;412;51.400;7.480;2023-04-24T14:09:48;7.20;;;5.50;;
850;SDS011;412;51.400;7.480;2023-04-24T14:12:14;5.03;;;4.67;;
850;SDS011;412;51.400;7.480;2023-04-24T14:14:45;4.47;;;4.07;;
850;SDS011;412;51.400;7.480;2023-04-24T14:17:13;4.67;;;4.27;;
850;SDS011;412;51.400;7.480;2023-04-24T14:19:39;4.20;;;3.90;;
850;SDS011;412;51.400;7.480;2023-04-24T14:22:05;5.10;;;4.80;;
850;SDS011;412;51.400;7.480;2023-04-24T14:24:31;4.00;;;3.70;;
850;SDS011;412;51.400;7.480;2023-04-24T14:26:57;3.87;;;3.27;;
850;SDS011;412;51.400;7.480;2023-04-24T14:29:22;2.80;;;2.60;;
850;SDS011;412;51.400;7.480;2023-04-24T14:31:49;3.33;;;2.97;;
850;SDS011;412;51.400;7.480;2023-04-24T14:34:14;3.93;;;3.57;;
850;SDS011;412;51.400;7.480;2023-04-24T14:36:40;78.23;;;48.03;;
850;SDS011;412;51.400;7.480;2023-04-24T14:39:07;14.90;;;12.20;;
850;SDS011;412;51.400;7.480;2023-04-24T14:41:33;14.33;;;10.70;;
850;SDS011;412;51.400;7.480;2023-04-24T14:44:01;3.40;;;3.10;;
850;SDS011;412;51.400;7.480;2023-04-24T14:46:28;3.60;;;3.30;;
850;SDS011;412;51.400;7.480;2023-04-24T14:48:55;3.77;;;3.57;;
850;SDS011;412;51.400;7.480;2023-04-24T14:51:22;4.30;;;3.30;;
850;SDS011;412;51.400;7.480;2023-04-24T14:53:48;5.27;;;4.77;;
850;SDS011;412;51.400;7.480;2023-04-24T14:56:13;4.60;;;4.23;;
850;SDS011;412;51.400;7.480;2023-04-24T14:58:40;4.33;;;4.03;;
850;SDS011;412;51.400;7.480;2023-04-24T15:01:05;3.80;;;3.50;;
850;SDS011;412;51.400;7.480;2023-04-24T15:03:31;3.27;;;2.90;;
850;SDS011;412;51.400;7.480;2023-04-24T15:05:57;2.97;;;2.77;;
850;SDS011;412;51.400;7.480;2023-04-24T15:08:23;3.87;;;3.67;;
850;SDS011;412;51.400;7.480;2023-04-24T15:10:49;3.87;;;3.47;;
850;SDS011;412;51.400;7.480;2023-04-24T15:13:14;2.50;;;2.40;;
850;SDS011;412;51.400;7.480;2023-04-24T15:15:40;2.67;;;2.47;;
850;SDS011;412;51.400;7.480;2023-04-24T15:18:07;5.03;;;2.83;;
850;SDS011;412;51.400;7.480;2023-04-24T15:20:35;2.70;;;2.50;;
850;SDS011;412;51.400;7.480;2023-04-24T15:23:01;2.87;;;2.60;;
850;SDS011;412;51.400;7.480;2023-04-24T15:25:27;3.20;;;3.00;;
850;SDS011;412;51.400;7.480;2023-04-24T15:27:53;2.83;;;2.43;;
850;SDS011;412;51.400;7.480;2023-04-24T15:30:19;2.53;;;2.20;;
850;SDS011;412;51.400;7.480;2023-04-24T15:32:45;2.80;;;2.60;;
850;SDS011;412;51.400;7.480;2023-04-24T15:35:11;2.77;;;2.63;;
850;SDS011;412;51.400;7.480;2023-04-24T15:37:37;3.13;;;2.37;;
850;SDS011;412;51.400;7.480;2023-04-24T15:40:04;2.90;;;2.70;;
850;SDS011;412;51.400;7.480;2023-04-24T15:42:32;3.20;;;3.00;;
850;SDS011;412;51.400;7.480;2023-04-24T15:44:58;3.60;;;3.13;;
850;SDS011;412;51.400;7.480;2023-04-24T15:47:24;3.43;;;2.67;;
850;SDS011;412;51.400;7.480;2023-04-24T15:49:51;2.60;;;2.50;;
850;SDS011;412;51.400;7.480;2023-04-24T15:52:17;4.40;;;3.30;;
850;SDS011;412;51.400;7.480;2023-04-24T15:54:43;6.07;;;2.90;;